Flight Number: EUR1175 Duration: 2:20
Departure: Madrid / Barajas (LEMD) at 08:30 Distance: 955 Nm
Arrival: Tenerife Norte (GCXO) at 10:50 Equipment: A321

Weather Information
Madrid / Barajas, Spain (LEMD) 40-27N 003-33W 582M Nov 19, 2017 - 10:30 PM EST / 2017.11.20 0330 UTC
Wind: from the N (360 degrees) at 5 MPH (4 KT):0
Visibility: greater than 7 mile(s):0 Temperature: 33 F (1 C)
Windchill: 28 F (-2 C):1 Dew Point: 30 F (-1 C) Relative Humidity: 86% Pressure (altimeter): 30.21 in. Hg (1023 hPa)
ob: LEMD 200330Z 36004KT CAVOK 01/M01 Q1023 NOSIG cycle: 3
Sunrise: 07:10 Sunset: 16:49 (UTC)

Tenerife / Los Rodeos, Spain (GCXO) 28-28N 016-19W 617M Nov 19, 2017 - 10:30 PM EST / 2017.11.20 0330 UTC
Wind: from the ESE (120 degrees) at 10 MPH (9 KT):0
Visibility: 4 mile(s):0
Sky conditions: mostly cloudy Temperature: 60 F (16 C) Dew Point: 59 F (15 C) Relative Humidity: 93% Pressure (altimeter): 30.03 in. Hg (1017 hPa)
ob: GCXO 200330Z AUTO 12009KT 7000 BKN003/// 16/15 Q1017 cycle: 3
Sunrise: 07:35 Sunset: 18:07 (UTC)

TAF:2017/11/20 03:30 TAF GCXO 200200Z 2003/2103 12011KT 9999 BKN006 TX22/2014Z TN15/2006Z TEMPO 2003/2010 2000 BCFG BKN003 PROB30 TEMPO 2003/2009 0900 FG BKN000

Previous Pireps for this route
Date Aircraft Flight time Fuel used Landing rate On time
2012-10-28A32102.5416304-310No
2013-06-05A32102.5116238-344No
2013-10-29B7372.20200000No
2014-06-11A32102.2814963-193Yes
2014-07-15A3212.4194480No
2014-07-19A32102.3615014-185Yes
2014-10-12A3212.20170000No
2015-01-06A3212.53221550No
(pireps marked green are flown by you)

Route map